sensor_id;sensor_type;location;lat;lon;timestamp;temperature;humidity
79140;HTU21D;68546;59.142;37.948;2023-04-03T00:00:11;4.33;80.14
79140;HTU21D;68546;59.142;37.948;2023-04-03T00:02:37;4.32;80.16
79140;HTU21D;68546;59.142;37.948;2023-04-03T00:05:04;4.33;80.12
79140;HTU21D;68546;59.142;37.948;2023-04-03T00:07:31;4.32;80.11
79140;HTU21D;68546;59.142;37.948;2023-04-03T00:09:58;4.32;80.18
79140;HTU21D;68546;59.142;37.948;2023-04-03T00:12:24;4.34;80.13
79140;HTU21D;68546;59.142;37.948;2023-04-03T00:14:50;4.33;80.07
79140;HTU21D;68546;59.142;37.948;2023-04-03T00:17:17;4.33;79.96
79140;HTU21D;68546;59.142;37.948;2023-04-03T00:19:43;4.31;79.85
79140;HTU21D;68546;59.142;37.948;2023-04-03T00:22:09;4.29;79.78
79140;HTU21D;68546;59.142;37.948;2023-04-03T00:24:36;4.28;79.80
79140;HTU21D;68546;59.142;37.948;2023-04-03T00:27:02;4.27;79.74
79140;HTU21D;68546;59.142;37.948;2023-04-03T00:29:28;4.24;79.62
79140;HTU21D;68546;59.142;37.948;2023-04-03T00:31:55;4.23;79.64
79140;HTU21D;68546;59.142;37.948;2023-04-03T00:34:21;4.22;79.68
79140;HTU21D;68546;59.142;37.948;2023-04-03T00:36:48;4.21;79.68
79140;HTU21D;68546;59.142;37.948;2023-04-03T00:39:14;4.20;79.69
79140;HTU21D;68546;59.142;37.948;2023-04-03T00:41:40;4.19;79.64
79140;HTU21D;68546;59.142;37.948;2023-04-03T00:47:15;4.17;79.78
79140;HTU21D;68546;59.142;37.948;2023-04-03T00:49:42;4.15;79.78
79140;HTU21D;68546;59.142;37.948;2023-04-03T00:52:13;4.15;79.83
79140;HTU21D;68546;59.142;37.948;2023-04-03T00:54:43;4.15;79.85
79140;HTU21D;68546;59.142;37.948;2023-04-03T00:57:12;4.14;79.81
79140;HTU21D;68546;59.142;37.948;2023-04-03T00:59:43;4.14;79.78
79140;HTU21D;68546;59.142;37.948;2023-04-03T01:02:11;4.12;79.79
79140;HTU21D;68546;59.142;37.948;2023-04-03T01:04:40;4.12;79.88
79140;HTU21D;68546;59.142;37.948;2023-04-03T01:07:10;4.10;79.97
79140;HTU21D;68546;59.142;37.948;2023-04-03T01:09:37;4.13;80.01
79140;HTU21D;68546;59.142;37.948;2023-04-03T01:12:23;4.12;80.00
79140;HTU21D;68546;59.142;37.948;2023-04-03T01:14:55;4.09;79.91
79140;HTU21D;68546;59.142;37.948;2023-04-03T01:17:32;4.10;79.97
79140;HTU21D;68546;59.142;37.948;2023-04-03T01:26:09;4.12;80.12
79140;HTU21D;68546;59.142;37.948;2023-04-03T01:28:37;4.12;80.22
79140;HTU21D;68546;59.142;37.948;2023-04-03T01:33:53;4.13;80.25
79140;HTU21D;68546;59.142;37.948;2023-04-03T01:36:26;4.15;80.38
79140;HTU21D;68546;59.142;37.948;2023-04-03T01:38:54;4.15;80.30
79140;HTU21D;68546;59.142;37.948;2023-04-03T01:41:21;4.15;80.25
79140;HTU21D;68546;59.142;37.948;2023-04-03T01:43:50;4.17;80.28
79140;HTU21D;68546;59.142;37.948;2023-04-03T01:46:17;4.17;80.42
79140;HTU21D;68546;59.142;37.948;2023-04-03T01:48:44;4.18;80.50
79140;HTU21D;68546;59.142;37.948;2023-04-03T01:51:11;4.20;80.49
79140;HTU21D;68546;59.142;37.948;2023-04-03T01:53:37;4.21;80.45
79140;HTU21D;68546;59.142;37.948;2023-04-03T01:56:04;4.22;80.43
79140;HTU21D;68546;59.142;37.948;2023-04-03T01:58:31;4.23;80.43
79140;HTU21D;68546;59.142;37.948;2023-04-03T02:00:58;4.26;80.41
79140;HTU21D;68546;59.142;37.948;2023-04-03T02:03:25;4.26;80.43
79140;HTU21D;68546;59.142;37.948;2023-04-03T02:05:52;4.28;80.37
79140;HTU21D;68546;59.142;37.948;2023-04-03T02:08:19;4.27;80.27
79140;HTU21D;68546;59.142;37.948;2023-04-03T02:10:50;4.28;80.17
79140;HTU21D;68546;59.142;37.948;2023-04-03T02:13:17;4.27;80.17
79140;HTU21D;68546;59.142;37.948;2023-04-03T02:15:44;4.28;80.17
79140;HTU21D;68546;59.142;37.948;2023-04-03T02:18:12;4.29;80.16
79140;HTU21D;68546;59.142;37.948;2023-04-03T02:20:38;4.28;80.02
79140;HTU21D;68546;59.142;37.948;2023-04-03T02:23:06;4.27;79.95
79140;HTU21D;68546;59.142;37.948;2023-04-03T02:25:32;4.26;79.94
79140;HTU21D;68546;59.142;37.948;2023-04-03T02:27:59;4.26;80.07
79140;HTU21D;68546;59.142;37.948;2023-04-03T02:30:26;4.27;80.18
79140;HTU21D;68546;59.142;37.948;2023-04-03T02:32:52;4.28;80.31
79140;HTU21D;68546;59.142;37.948;2023-04-03T02:35:19;4.30;80.36
79140;HTU21D;68546;59.142;37.948;2023-04-03T02:37:47;4.31;80.52
79140;HTU21D;68546;59.142;37.948;2023-04-03T02:40:14;4.32;80.60
79140;HTU21D;68546;59.142;37.948;2023-04-03T02:42:40;4.34;80.54
79140;HTU21D;68546;59.142;37.948;2023-04-03T02:45:07;4.36;80.56
79140;HTU21D;68546;59.142;37.948;2023-04-03T02:47:34;4.37;80.42
79140;HTU21D;68546;59.142;37.948;2023-04-03T02:50:00;4.37;80.33
79140;HTU21D;68546;59.142;37.948;2023-04-03T02:52:27;4.38;80.33
79140;HTU21D;68546;59.142;37.948;2023-04-03T02:54:56;4.39;80.30
79140;HTU21D;68546;59.142;37.948;2023-04-03T02:57:23;4.41;80.31
79140;HTU21D;68546;59.142;37.948;2023-04-03T02:59:50;4.42;80.34
79140;HTU21D;68546;59.142;37.948;2023-04-03T03:02:16;4.42;80.34
79140;HTU21D;68546;59.142;37.948;2023-04-03T03:04:43;4.43;80.26
79140;HTU21D;68546;59.142;37.948;2023-04-03T03:07:10;4.43;80.20
79140;HTU21D;68546;59.142;37.948;2023-04-03T03:09:37;4.43;80.16
79140;HTU21D;68546;59.142;37.948;2023-04-03T03:12:05;4.43;80.16
79140;HTU21D;68546;59.142;37.948;2023-04-03T03:14:32;4.43;80.15
79140;HTU21D;68546;59.142;37.948;2023-04-03T03:16:58;4.44;80.14
79140;HTU21D;68546;59.142;37.948;2023-04-03T03:19:26;4.43;80.08
79140;HTU21D;68546;59.142;37.948;2023-04-03T03:21:52;4.45;80.14
79140;HTU21D;68546;59.142;37.948;2023-04-03T03:24:19;4.45;80.14
79140;HTU21D;68546;59.142;37.948;2023-04-03T03:26:47;4.45;80.09
79140;HTU21D;68546;59.142;37.948;2023-04-03T03:29:14;4.46;80.07
79140;HTU21D;68546;59.142;37.948;2023-04-03T03:31:41;4.44;79.89
79140;HTU21D;68546;59.142;37.948;2023-04-03T03:34:07;4.45;79.78
79140;HTU21D;68546;59.142;37.948;2023-04-03T03:36:34;4.45;79.78
79140;HTU21D;68546;59.142;37.948;2023-04-03T03:39:02;4.44;79.82
79140;HTU21D;68546;59.142;37.948;2023-04-03T03:41:29;4.44;79.79
79140;HTU21D;68546;59.142;37.948;2023-04-03T03:43:55;4.42;79.74
79140;HTU21D;68546;59.142;37.948;2023-04-03T03:46:23;4.43;79.72
79140;HTU21D;68546;59.142;37.948;2023-04-03T03:48:50;4.42;79.72
79140;HTU21D;68546;59.142;37.948;2023-04-03T03:51:17;4.43;79.74
79140;HTU21D;68546;59.142;37.948;2023-04-03T03:53:43;4.41;79.70
79140;HTU21D;68546;59.142;37.948;2023-04-03T03:56:14;4.41;79.64
79140;HTU21D;68546;59.142;37.948;2023-04-03T03:58:41;4.41;79.63
79140;HTU21D;68546;59.142;37.948;2023-04-03T04:01:08;4.39;79.86
79140;HTU21D;68546;59.142;37.948;2023-04-03T04:03:40;4.41;80.01
79140;HTU21D;68546;59.142;37.948;2023-04-03T04:06:09;4.43;79.97
79140;HTU21D;68546;59.142;37.948;2023-04-03T04:08:36;4.43;79.75
79140;HTU21D;68546;59.142;37.948;2023-04-03T04:11:05;4.43;79.72
79140;HTU21D;68546;59.142;37.948;2023-04-03T04:13:32;4.42;79.69
79140;HTU21D;68546;59.142;37.948;2023-04-03T04:15:59;4.43;79.97
79140;HTU21D;68546;59.142;37.948;2023-04-03T04:18:26;4.45;80.20
79140;HTU21D;68546;59.142;37.948;2023-04-03T04:20:52;4.46;80.32
79140;HTU21D;68546;59.142;37.948;2023-04-03T04:23:21;4.49;80.40
79140;HTU21D;68546;59.142;37.948;2023-04-03T04:25:49;4.51;80.43
79140;HTU21D;68546;59.142;37.948;2023-04-03T04:28:15;4.54;80.49
79140;HTU21D;68546;59.142;37.948;2023-04-03T04:30:43;4.58;80.41
79140;HTU21D;68546;59.142;37.948;2023-04-03T04:33:10;4.60;80.43
79140;HTU21D;68546;59.142;37.948;2023-04-03T04:35:38;4.61;80.31
79140;HTU21D;68546;59.142;37.948;2023-04-03T04:38:05;4.62;80.18
79140;HTU21D;68546;59.142;37.948;2023-04-03T04:40:31;4.63;80.12
79140;HTU21D;68546;59.142;37.948;2023-04-03T04:42:59;4.62;80.08
79140;HTU21D;68546;59.142;37.948;2023-04-03T04:45:26;4.65;80.00
79140;HTU21D;68546;59.142;37.948;2023-04-03T04:47:55;4.65;79.95
79140;HTU21D;68546;59.142;37.948;2023-04-03T04:50:23;4.65;79.88
79140;HTU21D;68546;59.142;37.948;2023-04-03T04:52:50;4.66;79.75
79140;HTU21D;68546;59.142;37.948;2023-04-03T04:55:17;4.64;79.74
79140;HTU21D;68546;59.142;37.948;2023-04-03T04:57:43;4.65;79.85
79140;HTU21D;68546;59.142;37.948;2023-04-03T05:00:10;4.66;79.85
79140;HTU21D;68546;59.142;37.948;2023-04-03T05:02:37;4.66;79.76
79140;HTU21D;68546;59.142;37.948;2023-04-03T05:05:04;4.66;79.66
79140;HTU21D;68546;59.142;37.948;2023-04-03T05:07:31;4.65;79.73
79140;HTU21D;68546;59.142;37.948;2023-04-03T05:09:59;4.65;79.90
79140;HTU21D;68546;59.142;37.948;2023-04-03T05:12:26;4.67;80.04
79140;HTU21D;68546;59.142;37.948;2023-04-03T05:14:58;4.69;80.31
79140;HTU21D;68546;59.142;37.948;2023-04-03T05:17:26;4.74;80.51
79140;HTU21D;68546;59.142;37.948;2023-04-03T05:19:55;4.77;80.61
79140;HTU21D;68546;59.142;37.948;2023-04-03T05:22:23;4.81;80.37
79140;HTU21D;68546;59.142;37.948;2023-04-03T05:24:52;4.83;80.29
79140;HTU21D;68546;59.142;37.948;2023-04-03T05:27:20;4.84;80.21
79140;HTU21D;68546;59.142;37.948;2023-04-03T05:29:52;4.89;80.24
79140;HTU21D;68546;59.142;37.948;2023-04-03T05:32:22;4.90;80.26
79140;HTU21D;68546;59.142;37.948;2023-04-03T05:34:53;4.93;80.20
79140;HTU21D;68546;59.142;37.948;2023-04-03T05:37:20;4.94;80.17
79140;HTU21D;68546;59.142;37.948;2023-04-03T05:39:47;4.96;80.11
79140;HTU21D;68546;59.142;37.948;2023-04-03T05:42:14;4.98;80.08
79140;HTU21D;68546;59.142;37.948;2023-04-03T05:44:42;5.00;80.07
79140;HTU21D;68546;59.142;37.948;2023-04-03T05:47:09;5.02;80.01
79140;HTU21D;68546;59.142;37.948;2023-04-03T05:49:35;5.05;80.20
79140;HTU21D;68546;59.142;37.948;2023-04-03T05:52:02;5.09;80.37
79140;HTU21D;68546;59.142;37.948;2023-04-03T05:54:30;5.13;80.33
79140;HTU21D;68546;59.142;37.948;2023-04-03T05:57:13;5.17;80.41
79140;HTU21D;68546;59.142;37.948;2023-04-03T05:59:42;5.23;80.44
79140;HTU21D;68546;59.142;37.948;2023-04-03T06:02:11;5.27;80.60
79140;HTU21D;68546;59.142;37.948;2023-04-03T06:04:38;5.33;80.72
79140;HTU21D;68546;59.142;37.948;2023-04-03T06:07:05;5.38;80.55
79140;HTU21D;68546;59.142;37.948;2023-04-03T06:09:33;5.41;80.33
79140;HTU21D;68546;59.142;37.948;2023-04-03T06:11:59;5.46;80.29
79140;HTU21D;68546;59.142;37.948;2023-04-03T06:14:28;5.48;80.23
79140;HTU21D;68546;59.142;37.948;2023-04-03T06:16:54;5.52;80.20
79140;HTU21D;68546;59.142;37.948;2023-04-03T06:19:21;5.55;80.27
79140;HTU21D;68546;59.142;37.948;2023-04-03T06:21:51;5.61;80.37
79140;HTU21D;68546;59.142;37.948;2023-04-03T06:24:18;5.64;80.40
79140;HTU21D;68546;59.142;37.948;2023-04-03T06:26:46;5.67;79.66
79140;HTU21D;68546;59.142;37.948;2023-04-03T06:29:13;5.68;79.21
79140;HTU21D;68546;59.142;37.948;2023-04-03T06:31:40;5.67;79.17
79140;HTU21D;68546;59.142;37.948;2023-04-03T06:34:06;5.68;79.40
79140;HTU21D;68546;59.142;37.948;2023-04-03T06:36:33;5.71;79.56
79140;HTU21D;68546;59.142;37.948;2023-04-03T06:39:00;5.72;79.34
79140;HTU21D;68546;59.142;37.948;2023-04-03T06:41:28;5.75;79.08
79140;HTU21D;68546;59.142;37.948;2023-04-03T06:43:54;5.75;78.98
79140;HTU21D;68546;59.142;37.948;2023-04-03T06:46:24;5.77;79.04
79140;HTU21D;68546;59.142;37.948;2023-04-03T06:48:51;5.81;79.23
79140;HTU21D;68546;59.142;37.948;2023-04-03T06:51:23;5.83;79.41
79140;HTU21D;68546;59.142;37.948;2023-04-03T06:53:52;5.87;79.51
79140;HTU21D;68546;59.142;37.948;2023-04-03T06:56:19;5.92;79.41
79140;HTU21D;68546;59.142;37.948;2023-04-03T06:58:46;5.94;78.94
79140;HTU21D;68546;59.142;37.948;2023-04-03T07:01:14;5.93;78.73
79140;HTU21D;68546;59.142;37.948;2023-04-03T07:03:42;5.94;78.74
79140;HTU21D;68546;59.142;37.948;2023-04-03T07:06:11;5.96;78.82
79140;HTU21D;68546;59.142;37.948;2023-04-03T07:08:38;5.98;79.08
79140;HTU21D;68546;59.142;37.948;2023-04-03T07:11:05;6.02;79.25
79140;HTU21D;68546;59.142;37.948;2023-04-03T07:13:32;6.07;79.30
79140;HTU21D;68546;59.142;37.948;2023-04-03T07:15:59;6.10;79.04
79140;HTU21D;68546;59.142;37.948;2023-04-03T07:18:25;6.13;78.98
79140;HTU21D;68546;59.142;37.948;2023-04-03T07:20:52;6.14;78.74
79140;HTU21D;68546;59.142;37.948;2023-04-03T07:23:18;6.16;78.75
79140;HTU21D;68546;59.142;37.948;2023-04-03T07:25:46;6.19;78.75
79140;HTU21D;68546;59.142;37.948;2023-04-03T07:28:13;6.22;78.77
79140;HTU21D;68546;59.142;37.948;2023-04-03T07:31:06;6.26;78.75
79140;HTU21D;68546;59.142;37.948;2023-04-03T07:33:35;6.28;78.66
79140;HTU21D;68546;59.142;37.948;2023-04-03T07:36:02;6.33;78.72
79140;HTU21D;68546;59.142;37.948;2023-04-03T07:38:29;6.38;78.83
79140;HTU21D;68546;59.142;37.948;2023-04-03T07:40:55;6.42;78.65
79140;HTU21D;68546;59.142;37.948;2023-04-03T07:43:22;6.48;78.82
79140;HTU21D;68546;59.142;37.948;2023-04-03T07:45:51;6.54;78.70
79140;HTU21D;68546;59.142;37.948;2023-04-03T07:48:22;6.55;78.27
79140;HTU21D;68546;59.142;37.948;2023-04-03T07:50:49;6.57;78.07
79140;HTU21D;68546;59.142;37.948;2023-04-03T07:53:15;6.59;77.95
79140;HTU21D;68546;59.142;37.948;2023-04-03T07:55:43;6.61;77.96
79140;HTU21D;68546;59.142;37.948;2023-04-03T07:58:14;6.65;77.94
79140;HTU21D;68546;59.142;37.948;2023-04-03T08:00:41;6.67;78.06
79140;HTU21D;68546;59.142;37.948;2023-04-03T08:03:10;6.71;78.11
79140;HTU21D;68546;59.142;37.948;2023-04-03T08:05:38;6.74;77.93
79140;HTU21D;68546;59.142;37.948;2023-04-03T08:08:06;6.78;77.93
79140;HTU21D;68546;59.142;37.948;2023-04-03T08:10:33;6.81;77.78
79140;HTU21D;68546;59.142;37.948;2023-04-03T08:13:01;6.83;77.36
79140;HTU21D;68546;59.142;37.948;2023-04-03T08:15:27;6.85;77.29
79140;HTU21D;68546;59.142;37.948;2023-04-03T08:17:54;6.86;77.30
79140;HTU21D;68546;59.142;37.948;2023-04-03T08:20:20;6.87;77.10
79140;HTU21D;68546;59.142;37.948;2023-04-03T08:22:47;6.88;76.70
79140;HTU21D;68546;59.142;37.948;2023-04-03T08:25:13;6.88;76.68
79140;HTU21D;68546;59.142;37.948;2023-04-03T08:27:40;6.89;76.84
79140;HTU21D;68546;59.142;37.948;2023-04-03T08:30:07;6.89;76.79
79140;HTU21D;68546;59.142;37.948;2023-04-03T08:32:34;6.90;76.83
79140;HTU21D;68546;59.142;37.948;2023-04-03T08:35:03;6.91;76.60
79140;HTU21D;68546;59.142;37.948;2023-04-03T08:37:29;6.90;76.18
79140;HTU21D;68546;59.142;37.948;2023-04-03T08:39:56;6.89;75.95
79140;HTU21D;68546;59.142;37.948;2023-04-03T08:45:15;6.88;75.76
79140;HTU21D;68546;59.142;37.948;2023-04-03T08:50:29;6.91;76.14
79140;HTU21D;68546;59.142;37.948;2023-04-03T08:52:58;6.94;76.11
79140;HTU21D;68546;59.142;37.948;2023-04-03T08:55:40;6.96;76.01
79140;HTU21D;68546;59.142;37.948;2023-04-03T09:00:46;7.03;76.49
79140;HTU21D;68546;59.142;37.948;2023-04-03T09:03:15;7.08;76.47
79140;HTU21D;68546;59.142;37.948;2023-04-03T09:08:35;7.12;75.90
79140;HTU21D;68546;59.142;37.948;2023-04-03T09:13:59;7.14;75.63
79140;HTU21D;68546;59.142;37.948;2023-04-03T09:21:39;7.19;75.94
79140;HTU21D;68546;59.142;37.948;2023-04-03T09:24:11;7.22;76.09
79140;HTU21D;68546;59.142;37.948;2023-04-03T09:26:51;7.25;76.05
79140;HTU21D;68546;59.142;37.948;2023-04-03T09:29:20;7.26;75.73
79140;HTU21D;68546;59.142;37.948;2023-04-03T09:31:50;7.29;75.76
79140;HTU21D;68546;59.142;37.948;2023-04-03T09:34:29;7.31;76.12
79140;HTU21D;68546;59.142;37.948;2023-04-03T09:37:01;7.37;76.35
79140;HTU21D;68546;59.142;37.948;2023-04-03T09:39:52;7.43;76.19
79140;HTU21D;68546;59.142;37.948;2023-04-03T09:42:22;7.46;75.82
79140;HTU21D;68546;59.142;37.948;2023-04-03T09:44:58;7.48;75.79
79140;HTU21D;68546;59.142;37.948;2023-04-03T09:47:31;7.50;75.77
79140;HTU21D;68546;59.142;37.948;2023-04-03T09:52:38;7.54;75.62
79140;HTU21D;68546;59.142;37.948;2023-04-03T09:55:07;7.56;75.36
79140;HTU21D;68546;59.142;37.948;2023-04-03T09:57:34;7.58;75.29
79140;HTU21D;68546;59.142;37.948;2023-04-03T10:00:02;7.59;74.98
79140;HTU21D;68546;59.142;37.948;2023-04-03T10:02:35;7.57;74.96
79140;HTU21D;68546;59.142;37.948;2023-04-03T10:05:04;7.59;75.00
79140;HTU21D;68546;59.142;37.948;2023-04-03T10:07:50;7.57;74.93
79140;HTU21D;68546;59.142;37.948;2023-04-03T10:10:20;7.54;74.67
79140;HTU21D;68546;59.142;37.948;2023-04-03T10:12:48;7.52;74.63
79140;HTU21D;68546;59.142;37.948;2023-04-03T10:15:18;7.48;74.73
79140;HTU21D;68546;59.142;37.948;2023-04-03T10:17:58;7.48;74.99
79140;HTU21D;68546;59.142;37.948;2023-04-03T10:20:48;7.49;75.07
79140;HTU21D;68546;59.142;37.948;2023-04-03T10:23:33;7.49;75.04
79140;HTU21D;68546;59.142;37.948;2023-04-03T10:29:30;7.50;75.39
79140;HTU21D;68546;59.142;37.948;2023-04-03T10:34:56;7.57;75.44
79140;HTU21D;68546;59.142;37.948;2023-04-03T10:37:30;7.60;75.71
79140;HTU21D;68546;59.142;37.948;2023-04-03T10:43:07;7.72;76.27
79140;HTU21D;68546;59.142;37.948;2023-04-03T10:48:24;7.85;75.95
79140;HTU21D;68546;59.142;37.948;2023-04-03T10:53:59;7.92;75.66
79140;HTU21D;68546;59.142;37.948;2023-04-03T10:56:48;7.96;75.89
79140;HTU21D;68546;59.142;37.948;2023-04-03T10:59:16;8.02;75.80
79140;HTU21D;68546;59.142;37.948;2023-04-03T11:04:48;8.07;75.38
79140;HTU21D;68546;59.142;37.948;2023-04-03T11:07:28;8.08;74.91
79140;HTU21D;68546;59.142;37.948;2023-04-03T11:10:05;8.07;74.80
79140;HTU21D;68546;59.142;37.948;2023-04-03T11:12:41;8.07;74.94
79140;HTU21D;68546;59.142;37.948;2023-04-03T11:15:17;8.09;74.77
79140;HTU21D;68546;59.142;37.948;2023-04-03T11:17:55;8.08;74.77
79140;HTU21D;68546;59.142;37.948;2023-04-03T11:20:30;8.07;74.69
79140;HTU21D;68546;59.142;37.948;2023-04-03T11:23:26;8.07;74.55
79140;HTU21D;68546;59.142;37.948;2023-04-03T11:26:05;8.05;74.31
79140;HTU21D;68546;59.142;37.948;2023-04-03T11:28:33;8.02;74.15
79140;HTU21D;68546;59.142;37.948;2023-04-03T11:31:12;8.01;74.21
79140;HTU21D;68546;59.142;37.948;2023-04-03T11:36:26;7.96;74.15
79140;HTU21D;68546;59.142;37.948;2023-04-03T11:38:57;7.94;74.06
79140;HTU21D;68546;59.142;37.948;2023-04-03T11:41:28;7.92;74.02
79140;HTU21D;68546;59.142;37.948;2023-04-03T11:43:58;7.89;74.12
79140;HTU21D;68546;59.142;37.948;2023-04-03T12:16:46;7.99;74.51
79140;HTU21D;68546;59.142;37.948;2023-04-03T12:19:41;7.99;74.43
79140;HTU21D;68546;59.142;37.948;2023-04-03T12:22:16;7.98;74.23
79140;HTU21D;68546;59.142;37.948;2023-04-03T12:24:50;7.96;74.28
79140;HTU21D;68546;59.142;37.948;2023-04-03T12:46:11;7.92;74.15
79140;HTU21D;68546;59.142;37.948;2023-04-03T12:51:21;7.89;74.30
79140;HTU21D;68546;59.142;37.948;2023-04-03T12:54:00;7.89;74.28
79140;HTU21D;68546;59.142;37.948;2023-04-03T12:56:30;7.87;74.31
79140;HTU21D;68546;59.142;37.948;2023-04-03T13:01:44;7.83;74.31
79140;HTU21D;68546;59.142;37.948;2023-04-03T13:04:12;7.82;74.36
79140;HTU21D;68546;59.142;37.948;2023-04-03T13:06:41;7.81;74.57
79140;HTU21D;68546;59.142;37.948;2023-04-03T13:09:28;7.82;74.64
79140;HTU21D;68546;59.142;37.948;2023-04-03T13:11:59;7.82;74.72
79140;HTU21D;68546;59.142;37.948;2023-04-03T13:14:28;7.83;74.73
79140;HTU21D;68546;59.142;37.948;2023-04-03T13:16:57;7.83;74.76
79140;HTU21D;68546;59.142;37.948;2023-04-03T13:19:26;7.82;74.54
79140;HTU21D;68546;59.142;37.948;2023-04-03T13:22:04;7.81;74.54
79140;HTU21D;68546;59.142;37.948;2023-04-03T13:24:35;7.79;74.68
79140;HTU21D;68546;59.142;37.948;2023-04-03T13:27:03;7.79;74.63
79140;HTU21D;68546;59.142;37.948;2023-04-03T13:29:36;7.78;74.67
79140;HTU21D;68546;59.142;37.948;2023-04-03T13:32:05;7.79;74.73
79140;HTU21D;68546;59.142;37.948;2023-04-03T13:34:38;7.79;74.80
79140;HTU21D;68546;59.142;37.948;2023-04-03T13:37:06;7.78;74.78
79140;HTU21D;68546;59.142;37.948;2023-04-03T13:39:36;7.78;74.77
79140;HTU21D;68546;59.142;37.948;2023-04-03T13:42:25;7.77;74.69
79140;HTU21D;68546;59.142;37.948;2023-04-03T13:45:21;7.75;74.60
79140;HTU21D;68546;59.142;37.948;2023-04-03T13:47:51;7.73;74.70
79140;HTU21D;68546;59.142;37.948;2023-04-03T13:50:21;7.69;74.57
79140;HTU21D;68546;59.142;37.948;2023-04-03T13:53:12;7.65;74.54
79140;HTU21D;68546;59.142;37.948;2023-04-03T13:58:26;7.58;74.63
79140;HTU21D;68546;59.142;37.948;2023-04-03T14:05:48;7.50;75.05
79140;HTU21D;68546;59.142;37.948;2023-04-03T14:08:14;7.49;75.12
79140;HTU21D;68546;59.142;37.948;2023-04-03T14:10:40;7.48;75.33
79140;HTU21D;68546;59.142;37.948;2023-04-03T14:13:13;7.45;75.30
79140;HTU21D;68546;59.142;37.948;2023-04-03T14:15:39;7.45;75.34
79140;HTU21D;68546;59.142;37.948;2023-04-03T14:18:09;7.43;75.40
79140;HTU21D;68546;59.142;37.948;2023-04-03T14:20:35;7.41;75.34
79140;HTU21D;68546;59.142;37.948;2023-04-03T14:23:02;7.39;75.38
79140;HTU21D;68546;59.142;37.948;2023-04-03T14:25:29;7.35;75.40
79140;HTU21D;68546;59.142;37.948;2023-04-03T14:27:55;7.35;75.46
79140;HTU21D;68546;59.142;37.948;2023-04-03T14:30:27;7.34;75.63
79140;HTU21D;68546;59.142;37.948;2023-04-03T14:32:54;7.32;75.65
79140;HTU21D;68546;59.142;37.948;2023-04-03T14:35:21;7.32;75.73
79140;HTU21D;68546;59.142;37.948;2023-04-03T14:37:48;7.30;75.73
79140;HTU21D;68546;59.142;37.948;2023-04-03T14:40:20;7.30;75.81
79140;HTU21D;68546;59.142;37.948;2023-04-03T14:42:47;7.29;75.95
79140;HTU21D;68546;59.142;37.948;2023-04-03T14:45:15;7.28;75.93
79140;HTU21D;68546;59.142;37.948;2023-04-03T14:47:53;7.26;75.99
79140;HTU21D;68546;59.142;37.948;2023-04-03T14:50:25;7.25;76.05
79140;HTU21D;68546;59.142;37.948;2023-04-03T14:52:54;7.26;76.12
79140;HTU21D;68546;59.142;37.948;2023-04-03T14:55:23;7.25;76.14
79140;HTU21D;68546;59.142;37.948;2023-04-03T14:57:50;7.24;76.15
79140;HTU21D;68546;59.142;37.948;2023-04-03T15:00:19;7.23;76.21
79140;HTU21D;68546;59.142;37.948;2023-04-03T15:02:46;7.22;76.28
79140;HTU21D;68546;59.142;37.948;2023-04-03T15:05:15;7.22;76.42
79140;HTU21D;68546;59.142;37.948;2023-04-03T15:07:45;7.23;76.56
79140;HTU21D;68546;59.142;37.948;2023-04-03T15:10:21;7.23;76.47
79140;HTU21D;68546;59.142;37.948;2023-04-03T15:12:48;7.22;76.40
79140;HTU21D;68546;59.142;37.948;2023-04-03T15:15:16;7.20;76.39
79140;HTU21D;68546;59.142;37.948;2023-04-03T15:17:44;7.19;76.45
79140;HTU21D;68546;59.142;37.948;2023-04-03T15:20:16;7.16;76.45
79140;HTU21D;68546;59.142;37.948;2023-04-03T15:22:43;7.14;76.53
79140;HTU21D;68546;59.142;37.948;2023-04-03T15:25:10;7.13;76.50
79140;HTU21D;68546;59.142;37.948;2023-04-03T15:27:37;7.13;76.73
79140;HTU21D;68546;59.142;37.948;2023-04-03T15:30:05;7.14;76.87
79140;HTU21D;68546;59.142;37.948;2023-04-03T15:32:32;7.13;76.90
79140;HTU21D;68546;59.142;37.948;2023-04-03T15:35:00;7.14;76.92
79140;HTU21D;68546;59.142;37.948;2023-04-03T15:37:28;7.12;77.00
79140;HTU21D;68546;59.142;37.948;2023-04-03T15:39:54;7.11;76.89
79140;HTU21D;68546;59.142;37.948;2023-04-03T15:42:21;7.10;76.79
79140;HTU21D;68546;59.142;37.948;2023-04-03T15:44:47;7.09;76.81
79140;HTU21D;68546;59.142;37.948;2023-04-03T15:47:13;7.09;76.89
79140;HTU21D;68546;59.142;37.948;2023-04-03T15:49:40;7.08;76.89
79140;HTU21D;68546;59.142;37.948;2023-04-03T15:52:07;7.09;77.03
79140;HTU21D;68546;59.142;37.948;2023-04-03T15:54:34;7.08;76.98
79140;HTU21D;68546;59.142;37.948;2023-04-03T15:57:00;7.08;77.07
79140;HTU21D;68546;59.142;37.948;2023-04-03T15:59:27;7.08;77.13
79140;HTU21D;68546;59.142;37.948;2023-04-03T16:01:55;7.07;77.20
79140;HTU21D;68546;59.142;37.948;2023-04-03T16:04:22;7.08;77.18
79140;HTU21D;68546;59.142;37.948;2023-04-03T16:06:48;7.07;77.16
79140;HTU21D;68546;59.142;37.948;2023-04-03T16:09:15;7.07;77.24
79140;HTU21D;68546;59.142;37.948;2023-04-03T16:11:41;7.07;77.25
79140;HTU21D;68546;59.142;37.948;2023-04-03T16:14:09;7.07;77.20
79140;HTU21D;68546;59.142;37.948;2023-04-03T16:16:36;7.07;77.14
79140;HTU21D;68546;59.142;37.948;2023-04-03T16:19:04;7.04;77.20
79140;HTU21D;68546;59.142;37.948;2023-04-03T16:21:33;7.03;77.18
79140;HTU21D;68546;59.142;37.948;2023-04-03T16:23:59;7.02;77.10
79140;HTU21D;68546;59.142;37.948;2023-04-03T16:26:26;6.99;77.12
79140;HTU21D;68546;59.142;37.948;2023-04-03T16:28:53;6.97;77.16
79140;HTU21D;68546;59.142;37.948;2023-04-03T16:31:21;6.97;77.21
79140;HTU21D;68546;59.142;37.948;2023-04-03T16:33:48;6.95;77.27
79140;HTU21D;68546;59.142;37.948;2023-04-03T16:36:15;6.93;77.29
79140;HTU21D;68546;59.142;37.948;2023-04-03T16:38:41;6.91;77.46
79140;HTU21D;68546;59.142;37.948;2023-04-03T16:41:08;6.89;77.31
79140;HTU21D;68546;59.142;37.948;2023-04-03T16:43:34;6.88;77.37
79140;HTU21D;68546;59.142;37.948;2023-04-03T16:46:01;6.87;77.47
79140;HTU21D;68546;59.142;37.948;2023-04-03T16:48:29;6.86;77.51
79140;HTU21D;68546;59.142;37.948;2023-04-03T16:50:55;6.86;77.61
79140;HTU21D;68546;59.142;37.948;2023-04-03T16:53:23;6.85;77.57
79140;HTU21D;68546;59.142;37.948;2023-04-03T16:55:50;6.83;77.56
79140;HTU21D;68546;59.142;37.948;2023-04-03T16:58:17;6.82;77.57
79140;HTU21D;68546;59.142;37.948;2023-04-03T17:00:44;6.79;77.57
79140;HTU21D;68546;59.142;37.948;2023-04-03T17:03:10;6.80;77.64
79140;HTU21D;68546;59.142;37.948;2023-04-03T17:05:37;6.76;77.66
79140;HTU21D;68546;59.142;37.948;2023-04-03T17:08:04;6.75;77.71
79140;HTU21D;68546;59.142;37.948;2023-04-03T17:10:30;6.73;77.76
79140;HTU21D;68546;59.142;37.948;2023-04-03T17:12:57;6.74;77.79
79140;HTU21D;68546;59.142;37.948;2023-04-03T17:15:24;6.72;77.90
79140;HTU21D;68546;59.142;37.948;2023-04-03T17:17:52;6.70;77.88
79140;HTU21D;68546;59.142;37.948;2023-04-03T17:20:19;6.68;77.89
79140;HTU21D;68546;59.142;37.948;2023-04-03T17:22:46;6.66;77.76